createdAt,value
2022-11-29T00:01:06.684Z,23.20
2022-11-29T00:03:34.037Z,25.10
2022-11-29T00:06:05.353Z,20.90
2022-11-29T00:08:33.901Z,22.75
2022-11-29T00:11:04.529Z,25.08
2022-11-29T00:13:31.508Z,20.77
2022-11-29T00:16:02.521Z,21.98
2022-11-29T00:18:29.437Z,23.75
2022-11-29T00:20:56.781Z,21.83
2022-11-29T00:23:23.735Z,20.02
2022-11-29T00:25:52.609Z,19.55
2022-11-29T00:28:19.917Z,20.55
2022-11-29T00:30:47.405Z,22.08
2022-11-29T00:33:14.384Z,22.73
2022-11-29T00:35:41.365Z,22.55
2022-11-29T00:38:08.439Z,23.98
2022-11-29T00:40:35.389Z,22.73
2022-11-29T00:43:03.823Z,21.55
2022-11-29T00:45:30.892Z,22.05
2022-11-29T00:47:57.909Z,18.40
2022-11-29T00:50:24.918Z,21.02
2022-11-29T00:52:52.296Z,21.92
2022-11-29T00:55:19.227Z,20.92
2022-11-29T00:57:46.178Z,20.50
2022-11-29T01:00:15.947Z,22.27
2022-11-29T01:02:45.925Z,25.67
2022-11-29T01:05:13.216Z,22.63
2022-11-29T01:07:40.152Z,25.17
2022-11-29T01:10:08.278Z,25.80
2022-11-29T01:12:35.646Z,24.92
2022-11-29T01:15:02.646Z,25.98
2022-11-29T01:17:31.325Z,23.77
2022-11-29T01:19:58.336Z,25.45
2022-11-29T01:22:27.685Z,25.63
2022-11-29T01:24:54.621Z,25.58
2022-11-29T01:27:21.550Z,25.63
2022-11-29T01:29:48.638Z,24.63
2022-11-29T01:32:18.493Z,22.80
2022-11-29T01:34:46.984Z,25.40
2022-11-29T01:37:14.065Z,24.83
2022-11-29T01:39:41.016Z,30.48
2022-11-29T01:42:10.604Z,22.58
2022-11-29T01:45:08.088Z,24.60
2022-11-29T01:47:42.227Z,23.00
2022-11-29T01:50:10.968Z,28.42
2022-11-29T01:52:39.128Z,24.30
2022-11-29T01:55:08.065Z,25.13
2022-11-29T01:57:36.400Z,20.35
2022-11-29T02:00:08.761Z,26.17
2022-11-29T02:02:43.411Z,24.77
2022-11-29T02:05:13.331Z,23.40
2022-11-29T02:07:41.676Z,23.42
2022-11-29T02:10:09.813Z,21.25
2022-11-29T02:12:47.665Z,22.45
2022-11-29T02:15:33.556Z,23.05
2022-11-29T02:18:06.513Z,21.85
2022-11-29T02:21:11.203Z,23.88
2022-11-29T02:24:14.628Z,23.00
2022-11-29T02:27:19.972Z,20.88
2022-11-29T02:30:13.209Z,21.80
2022-11-29T02:33:34.379Z,18.42
2022-11-29T02:36:32.420Z,20.92
2022-11-29T02:39:33.909Z,20.70
2022-11-29T02:42:24.378Z,24.08
2022-11-29T02:45:03.734Z,22.75
2022-11-29T02:47:42.945Z,22.73
2022-11-29T02:50:24.588Z,21.50
2022-11-29T02:53:01.935Z,23.02
2022-11-29T02:55:37.617Z,22.77
2022-11-29T02:58:15.516Z,24.05
2022-11-29T03:00:51.004Z,20.50
2022-11-29T03:03:24.301Z,21.52
2022-11-29T03:06:04.143Z,22.33
2022-11-29T03:08:38.089Z,23.25
2022-11-29T03:11:13.530Z,24.02
2022-11-29T03:13:50.617Z,24.38
2022-11-29T03:16:29.044Z,21.17
2022-11-29T03:19:05.430Z,22.98
2022-11-29T03:21:44.320Z,21.98
2022-11-29T03:24:18.604Z,20.50
2022-11-29T03:26:49.865Z,18.33
2022-11-29T03:29:25.103Z,18.33
2022-11-29T03:34:29.294Z,19.08
2022-11-29T03:37:03.953Z,18.42
2022-11-29T03:39:38.295Z,16.65
2022-11-29T03:42:09.341Z,19.25
2022-11-29T03:44:40.661Z,19.08
2022-11-29T03:47:13.547Z,21.20
2022-11-29T03:49:45.830Z,21.42
2022-11-29T03:52:19.925Z,20.95
2022-11-29T03:54:57.106Z,19.85
2022-11-29T03:57:31.317Z,18.48
2022-11-29T04:00:04.236Z,19.55
2022-11-29T04:03:11.436Z,22.25
2022-11-29T04:06:09.609Z,19.13
2022-11-29T04:09:03.003Z,21.10
2022-11-29T04:12:14.434Z,19.80
2022-11-29T04:15:10.440Z,18.92
2022-11-29T04:18:13.695Z,17.63
2022-11-29T04:21:05.816Z,19.55
2022-11-29T04:23:58.940Z,17.98
2022-11-29T04:26:50.549Z,21.08
2022-11-29T04:29:37.285Z,21.45
2022-11-29T04:32:21.503Z,19.88
2022-11-29T04:35:04.527Z,20.60
2022-11-29T04:38:03.374Z,21.35
2022-11-29T04:41:01.736Z,20.70
2022-11-29T04:43:55.112Z,18.83
2022-11-29T04:46:39.812Z,20.90
2022-11-29T04:49:21.717Z,18.88
2022-11-29T04:52:06.785Z,21.45
2022-11-29T04:54:41.172Z,19.65
2022-11-29T04:57:17.723Z,18.53
2022-11-29T04:59:51.520Z,19.10
2022-11-29T05:02:33.296Z,16.90
2022-11-29T05:05:12.631Z,19.77
2022-11-29T05:07:46.714Z,19.73
2022-11-29T05:10:22.900Z,16.98
2022-11-29T05:13:04.969Z,18.08
2022-11-29T05:16:00.210Z,18.75
2022-11-29T05:18:46.850Z,22.00
2022-11-29T05:21:27.912Z,18.92
2022-11-29T05:24:03.254Z,16.90
2022-11-29T05:29:05.232Z,19.27
2022-11-29T05:31:50.661Z,19.05
2022-11-29T05:34:48.752Z,18.80
2022-11-29T05:37:25.327Z,18.58
2022-11-29T05:40:06.177Z,21.75
2022-11-29T05:42:56.361Z,20.85
2022-11-29T05:45:28.538Z,19.55
2022-11-29T05:48:03.199Z,21.55
2022-11-29T05:50:35.117Z,20.23
2022-11-29T05:53:21.430Z,23.80
2022-11-29T05:55:56.583Z,22.30
2022-11-29T05:58:32.164Z,26.23
2022-11-29T06:01:07.328Z,24.15
2022-11-29T06:03:39.337Z,29.02
2022-11-29T06:06:15.676Z,24.90
2022-11-29T06:08:48.865Z,29.27
2022-11-29T06:11:20.696Z,28.77
2022-11-29T06:14:00.337Z,28.92
2022-11-29T06:16:57.294Z,24.25
2022-11-29T06:19:49.187Z,23.75
2022-11-29T06:22:41.110Z,22.70
2022-11-29T06:25:23.724Z,24.27
2022-11-29T06:28:20.921Z,20.02
2022-11-29T06:30:57.342Z,24.25
2022-11-29T06:33:31.361Z,28.15
2022-11-29T06:36:12.002Z,22.30
2022-11-29T06:38:39.839Z,21.17
2022-11-29T06:41:07.528Z,23.98
2022-11-29T06:43:35.029Z,19.95
2022-11-29T06:46:10.686Z,22.40
2022-11-29T06:48:45.647Z,22.92
2022-11-29T06:51:19.789Z,22.00
2022-11-29T06:53:54.431Z,20.23
2022-11-29T06:56:29.260Z,17.17
2022-11-29T06:59:05.473Z,23.58
2022-11-29T07:01:39.907Z,17.17
2022-11-29T07:04:29.217Z,19.07
2022-11-29T07:06:56.661Z,19.52
2022-11-29T07:09:28.672Z,19.85
2022-11-29T07:11:56.241Z,22.10
2022-11-29T07:14:23.636Z,18.75
2022-11-29T07:16:59.430Z,18.67
2022-11-29T07:19:41.616Z,19.58
2022-11-29T07:22:26.136Z,20.13
2022-11-29T07:25:02.194Z,19.92
2022-11-29T07:27:36.020Z,19.15
2022-11-29T07:30:10.164Z,25.38
2022-11-29T07:32:50.800Z,23.75
2022-11-29T07:35:28.408Z,21.27
2022-11-29T07:38:06.066Z,19.88
2022-11-29T07:40:38.200Z,17.63
2022-11-29T07:43:21.083Z,15.80
2022-11-29T07:45:48.593Z,18.27
2022-11-29T07:48:16.875Z,18.80
2022-11-29T07:50:45.549Z,19.95
2022-11-29T07:53:16.537Z,23.02
2022-11-29T07:55:43.586Z,21.52
2022-11-29T07:58:12.001Z,25.08
2022-11-29T08:00:39.629Z,16.27
2022-11-29T08:03:06.714Z,15.07
2022-11-29T08:05:33.933Z,21.55
2022-11-29T08:08:02.513Z,17.73
2022-11-29T08:10:29.494Z,16.88
2022-11-29T08:12:56.479Z,20.02
2022-11-29T08:15:25.149Z,19.67
2022-11-29T08:17:53.505Z,16.42
2022-11-29T08:20:20.469Z,17.10
2022-11-29T08:22:54.105Z,15.93
2022-11-29T08:25:22.765Z,14.55
2022-11-29T08:27:49.988Z,16.80
2022-11-29T08:30:18.982Z,16.23
2022-11-29T08:32:51.102Z,18.10
2022-11-29T08:35:19.297Z,19.27
2022-11-29T08:37:46.371Z,18.50
2022-11-29T08:40:13.698Z,44.90
2022-11-29T08:42:42.216Z,16.35
2022-11-29T08:45:11.008Z,23.80
2022-11-29T08:47:38.513Z,17.13
2022-11-29T08:50:08.325Z,18.67
2022-11-29T08:52:56.160Z,27.98
2022-11-29T08:55:25.151Z,25.60
2022-11-29T08:57:54.953Z,17.98
2022-11-29T09:00:22.211Z,18.38
2022-11-29T09:02:49.367Z,17.10
2022-11-29T09:05:16.545Z,17.92
2022-11-29T09:07:43.633Z,17.65
2022-11-29T09:10:11.399Z,15.57
2022-11-29T09:12:39.101Z,17.85
2022-11-29T09:15:10.196Z,16.13
2022-11-29T09:17:37.522Z,16.80
2022-11-29T09:20:05.597Z,15.70
2022-11-29T09:22:32.606Z,16.10
2022-11-29T09:24:59.675Z,14.15
2022-11-29T09:27:26.682Z,19.15
2022-11-29T09:29:53.644Z,13.73
2022-11-29T09:32:23.065Z,15.10
2022-11-29T09:34:50.049Z,14.57
2022-11-29T09:37:17.055Z,17.60
2022-11-29T09:39:44.614Z,23.23
2022-11-29T09:42:23.996Z,13.82
2022-11-29T09:45:02.034Z,24.38
2022-11-29T09:47:45.385Z,16.45
2022-11-29T09:50:21.425Z,18.55
2022-11-29T09:52:56.580Z,19.10
2022-11-29T09:55:36.567Z,17.58
2022-11-29T09:58:05.465Z,18.40
2022-11-29T10:00:38.300Z,17.50
2022-11-29T10:03:16.081Z,16.95
2022-11-29T10:05:47.520Z,17.85
2022-11-29T10:08:20.924Z,23.83
2022-11-29T10:10:50.572Z,17.60
2022-11-29T10:13:23.618Z,15.75
2022-11-29T10:15:53.929Z,17.48
2022-11-29T10:18:27.334Z,15.95
2022-11-29T10:20:59.899Z,18.30
2022-11-29T10:23:31.970Z,15.30
2022-11-29T10:25:59.454Z,16.00
2022-11-29T10:28:30.671Z,17.15
2022-11-29T10:31:02.310Z,17.17
2022-11-29T10:33:34.059Z,14.50
2022-11-29T10:36:05.286Z,15.95
2022-11-29T10:38:32.490Z,14.23
2022-11-29T10:41:04.687Z,18.00
2022-11-29T10:43:31.708Z,13.93
2022-11-29T10:45:59.504Z,14.20
2022-11-29T10:48:28.732Z,19.58
2022-11-29T10:50:57.224Z,16.95
2022-11-29T10:53:25.442Z,15.90
2022-11-29T10:55:59.217Z,16.48
2022-11-29T10:58:28.935Z,14.43
2022-11-29T11:00:58.421Z,13.82
2022-11-29T11:03:31.110Z,16.85
2022-11-29T11:06:03.735Z,13.50
2022-11-29T11:08:32.598Z,13.13
2022-11-29T11:11:02.168Z,12.02
2022-11-29T11:13:30.961Z,16.38
2022-11-29T11:16:06.912Z,10.90
2022-11-29T11:18:33.950Z,18.38
2022-11-29T11:21:02.868Z,22.63
2022-11-29T11:23:31.532Z,33.00
2022-11-29T11:26:01.698Z,36.35
2022-11-29T11:28:40.038Z,23.90
2022-11-29T11:31:09.733Z,21.70
2022-11-29T11:33:38.188Z,19.08
2022-11-29T11:36:10.120Z,32.13
2022-11-29T11:38:39.165Z,14.57
2022-11-29T11:41:22.621Z,15.88
2022-11-29T11:43:52.045Z,14.27
2022-11-29T11:46:19.427Z,15.00
2022-11-29T11:48:47.432Z,15.63
2022-11-29T11:51:25.679Z,15.15
2022-11-29T11:53:57.047Z,11.43
2022-11-29T11:56:26.143Z,16.00
2022-11-29T11:58:56.299Z,14.57
2022-11-29T12:01:30.787Z,14.45
2022-11-29T12:04:02.843Z,12.73
2022-11-29T12:06:41.469Z,12.02
2022-11-29T12:09:18.651Z,15.95
2022-11-29T12:11:51.305Z,14.23
2022-11-29T12:14:36.608Z,17.02
2022-11-29T12:17:16.972Z,14.52
2022-11-29T12:19:58.967Z,11.68
2022-11-29T12:22:34.048Z,13.05
2022-11-29T12:25:05.051Z,18.17
2022-11-29T12:27:32.191Z,24.45
2022-11-29T12:29:59.095Z,30.67
2022-11-29T12:32:52.020Z,11.30
2022-11-29T12:35:52.402Z,21.67
2022-11-29T12:38:32.112Z,22.58
2022-11-29T12:41:09.717Z,15.32
2022-11-29T12:43:50.387Z,22.30
2022-11-29T12:46:26.005Z,11.80
2022-11-29T12:49:00.462Z,13.23
2022-11-29T12:51:35.261Z,19.05
2022-11-29T12:54:22.561Z,11.75
2022-11-29T12:56:58.627Z,12.05
2022-11-29T12:59:37.594Z,14.38
2022-11-29T13:02:22.886Z,11.15
2022-11-29T13:04:59.870Z,10.85
2022-11-29T13:07:35.829Z,10.48
2022-11-29T13:10:18.423Z,10.00
2022-11-29T13:12:48.613Z,14.85
2022-11-29T13:15:18.021Z,14.30
2022-11-29T13:17:56.564Z,17.60
2022-11-29T13:20:33.654Z,12.98
2022-11-29T13:23:10.867Z,13.20
2022-11-29T13:25:41.979Z,9.65
2022-11-29T13:28:16.669Z,15.95
2022-11-29T13:30:43.742Z,9.35
2022-11-29T13:33:17.567Z,13.93
2022-11-29T13:35:51.415Z,14.32
2022-11-29T13:38:25.333Z,8.98
2022-11-29T13:40:58.288Z,10.75
2022-11-29T13:43:34.530Z,10.48
2022-11-29T13:46:14.234Z,7.35
2022-11-29T13:48:49.044Z,5.85
2022-11-29T13:51:25.917Z,7.60
2022-11-29T13:53:54.206Z,12.52
2022-11-29T13:56:42.650Z,9.73
2022-11-29T13:59:17.486Z,8.85
2022-11-29T14:01:47.066Z,8.35
2022-11-29T14:04:26.832Z,11.07
2022-11-29T14:07:11.417Z,11.13
2022-11-29T14:09:56.363Z,6.93
2022-11-29T14:12:37.223Z,8.47
2022-11-29T14:15:17.682Z,9.35
2022-11-29T14:17:51.170Z,8.63
2022-11-29T14:20:57.737Z,7.18
2022-11-29T14:23:36.691Z,6.20
2022-11-29T14:26:31.561Z,5.93
2022-11-29T14:29:00.802Z,4.03
2022-11-29T14:31:47.559Z,4.63
2022-11-29T14:34:21.785Z,4.68
2022-11-29T14:36:52.812Z,7.15
2022-11-29T14:39:34.243Z,6.40
2022-11-29T14:42:14.696Z,5.50
2022-11-29T14:44:51.120Z,4.43
2022-11-29T14:47:25.251Z,5.75
2022-11-29T14:49:55.610Z,5.05
2022-11-29T14:52:34.481Z,4.65
2022-11-29T14:55:05.390Z,8.68
2022-11-29T14:57:55.293Z,10.73
2022-11-29T15:00:27.245Z,12.68
2022-11-29T15:02:57.897Z,11.90
2022-11-29T15:05:32.134Z,11.73
2022-11-29T15:08:08.666Z,9.00
2022-11-29T15:10:42.930Z,11.30
2022-11-29T15:13:13.217Z,8.80
2022-11-29T15:15:57.887Z,7.85
2022-11-29T15:18:38.620Z,8.27
2022-11-29T15:21:19.280Z,6.50
2022-11-29T15:23:46.264Z,10.73
2022-11-29T15:26:18.262Z,14.20
2022-11-29T15:28:45.538Z,6.72
2022-11-29T15:31:18.047Z,5.38
2022-11-29T15:33:47.701Z,5.68
2022-11-29T15:36:18.526Z,6.60
2022-11-29T15:38:47.747Z,6.00
2022-11-29T15:41:20.687Z,4.72
2022-11-29T15:43:52.451Z,6.00
2022-11-29T15:46:24.091Z,5.18
2022-11-29T15:48:51.408Z,6.70
2022-11-29T15:51:28.353Z,7.72
2022-11-29T15:54:12.268Z,8.07
2022-11-29T15:56:45.320Z,7.35
2022-11-29T15:59:18.535Z,12.93
2022-11-29T16:01:50.175Z,6.40
2022-11-29T16:04:20.136Z,7.88
2022-11-29T16:06:49.613Z,6.95
2022-11-29T16:09:21.220Z,7.47
2022-11-29T16:11:49.130Z,9.25
2022-11-29T16:14:22.078Z,9.27
2022-11-29T16:16:53.662Z,8.45
2022-11-29T16:19:29.837Z,8.05
2022-11-29T16:22:17.125Z,7.55
2022-11-29T16:24:53.794Z,5.00
2022-11-29T16:27:22.279Z,11.10
2022-11-29T16:29:55.127Z,6.90
2022-11-29T16:32:31.103Z,6.70
2022-11-29T16:35:06.220Z,5.57
2022-11-29T16:37:39.959Z,6.18
2022-11-29T16:40:19.237Z,6.45
2022-11-29T16:43:05.543Z,6.70
2022-11-29T16:45:34.224Z,5.50
2022-11-29T16:48:14.155Z,5.75
2022-11-29T16:50:41.426Z,3.83
2022-11-29T16:53:32.820Z,4.22
2022-11-29T16:55:59.747Z,4.30
2022-11-29T16:58:27.592Z,4.32
2022-11-29T17:00:55.590Z,4.25
2022-11-29T17:03:24.252Z,4.40
2022-11-29T17:05:51.241Z,4.95
2022-11-29T17:08:18.249Z,3.58
2022-11-29T17:10:45.230Z,5.10
2022-11-29T17:13:12.224Z,4.40
2022-11-29T17:15:39.242Z,4.38
2022-11-29T17:18:06.291Z,3.67
2022-11-29T17:20:34.789Z,5.93
2022-11-29T17:23:01.831Z,4.53
2022-11-29T17:25:31.254Z,4.93
2022-11-29T17:27:58.261Z,5.05
2022-11-29T17:30:25.592Z,3.63
2022-11-29T17:32:52.573Z,9.48
2022-11-29T17:35:19.554Z,7.35
2022-11-29T17:37:47.891Z,4.10
2022-11-29T17:40:15.492Z,5.38
2022-11-29T17:42:42.497Z,5.75
2022-11-29T17:45:10.088Z,5.35
2022-11-29T17:47:37.065Z,3.65
2022-11-29T17:50:04.727Z,3.28
2022-11-29T17:52:32.372Z,2.88
2022-11-29T17:55:00.689Z,3.95
2022-11-29T17:57:27.824Z,4.32
2022-11-29T17:59:54.801Z,3.08
2022-11-29T18:02:21.857Z,2.90
2022-11-29T18:04:48.889Z,3.80
2022-11-29T18:07:17.567Z,3.20
2022-11-29T18:09:46.456Z,3.45
2022-11-29T18:12:15.040Z,4.55
2022-11-29T18:14:42.056Z,5.18
2022-11-29T18:17:09.647Z,3.67
2022-11-29T18:19:36.580Z,7.60
2022-11-29T18:22:03.829Z,5.10
2022-11-29T18:24:30.864Z,4.68
2022-11-29T18:26:57.811Z,6.93
2022-11-29T18:29:26.246Z,4.07
2022-11-29T18:31:53.238Z,3.75
2022-11-29T18:34:20.213Z,3.20
2022-11-29T18:36:48.721Z,4.63
2022-11-29T18:39:17.519Z,3.03
2022-11-29T18:41:47.188Z,5.57
2022-11-29T18:44:18.649Z,5.57
2022-11-29T18:46:47.570Z,5.65
2022-11-29T18:49:16.673Z,4.88
2022-11-29T18:51:45.391Z,2.88
2022-11-29T18:54:13.236Z,5.55
2022-11-29T18:56:40.733Z,3.30
2022-11-29T18:59:10.397Z,3.80
2022-11-29T19:01:41.289Z,6.03
2022-11-29T19:04:12.076Z,5.95
2022-11-29T19:06:40.328Z,5.95
2022-11-29T19:09:11.460Z,5.00
2022-11-29T19:11:39.131Z,3.83
2022-11-29T19:14:11.784Z,6.30
2022-11-29T19:16:40.320Z,4.10
2022-11-29T19:19:09.249Z,3.83
2022-11-29T19:21:36.302Z,4.20
2022-11-29T19:24:07.038Z,3.53
2022-11-29T19:26:34.739Z,4.22
2022-11-29T19:29:01.891Z,5.07
2022-11-29T19:31:29.421Z,6.03
2022-11-29T19:33:57.063Z,4.50
2022-11-29T19:36:27.568Z,4.38
2022-11-29T19:38:59.376Z,3.70
2022-11-29T19:41:28.495Z,3.30
2022-11-29T19:43:56.818Z,5.65
2022-11-29T19:46:25.257Z,3.67
2022-11-29T19:48:52.637Z,5.18
2022-11-29T19:51:20.239Z,3.25
2022-11-29T19:53:52.202Z,4.75
2022-11-29T19:56:20.594Z,4.65
2022-11-29T19:58:49.081Z,3.67
2022-11-29T20:01:17.768Z,5.65
2022-11-29T20:03:47.758Z,7.32
2022-11-29T20:06:15.647Z,7.32
2022-11-29T20:08:43.118Z,5.35
2022-11-29T20:11:13.326Z,5.95
2022-11-29T20:13:42.202Z,3.90
2022-11-29T20:16:11.075Z,4.78
2022-11-29T20:18:41.814Z,4.65
2022-11-29T20:21:13.269Z,4.80
2022-11-29T20:23:41.717Z,6.78
2022-11-29T20:26:14.741Z,7.30
2022-11-29T20:28:41.881Z,8.40
2022-11-29T20:31:10.996Z,4.82
2022-11-29T20:33:38.920Z,5.80
2022-11-29T20:36:13.517Z,6.55
2022-11-29T20:38:51.075Z,8.18
2022-11-29T20:41:24.884Z,5.00
2022-11-29T20:43:56.437Z,4.65
2022-11-29T20:46:25.810Z,4.07
2022-11-29T20:48:53.530Z,5.78
2022-11-29T20:51:27.342Z,7.57
2022-11-29T20:53:54.532Z,8.07
2022-11-29T20:56:22.903Z,8.40
2022-11-29T20:58:49.844Z,7.32
2022-11-29T21:01:16.895Z,7.50
2022-11-29T21:03:43.913Z,9.27
2022-11-29T21:06:10.884Z,7.28
2022-11-29T21:08:37.845Z,7.60
2022-11-29T21:11:06.713Z,10.32
2022-11-29T21:13:36.150Z,8.38
2022-11-29T21:16:03.914Z,8.27
2022-11-29T21:18:32.007Z,7.18
2022-11-29T21:21:12.241Z,4.60
2022-11-29T21:23:52.202Z,9.65
2022-11-29T21:26:24.637Z,6.53
2022-11-29T21:28:59.826Z,6.78
2022-11-29T21:31:27.816Z,5.50
2022-11-29T21:33:55.290Z,5.18
2022-11-29T21:36:22.417Z,6.88
2022-11-29T21:38:54.754Z,7.57
2022-11-29T21:41:22.545Z,4.28
2022-11-29T21:44:07.288Z,8.88
2022-11-29T21:46:36.468Z,5.65
2022-11-29T21:49:04.158Z,4.30
2022-11-29T21:51:31.073Z,4.85
2022-11-29T21:53:57.989Z,5.00
2022-11-29T21:56:25.121Z,3.60
2022-11-29T21:58:52.219Z,7.35
2022-11-29T22:01:20.770Z,4.97
2022-11-29T22:03:52.478Z,4.18
2022-11-29T22:06:20.462Z,5.53
2022-11-29T22:08:48.279Z,4.90
2022-11-29T22:11:17.355Z,4.47
2022-11-29T22:14:03.279Z,3.00
2022-11-29T22:16:30.619Z,3.22
2022-11-29T22:18:58.997Z,4.28
2022-11-29T22:21:25.954Z,6.43
2022-11-29T22:23:53.161Z,3.97
2022-11-29T22:26:21.581Z,4.10
2022-11-29T22:28:48.684Z,7.75
2022-11-29T22:31:15.686Z,3.20
2022-11-29T22:33:42.738Z,7.97
2022-11-29T22:36:12.612Z,4.30
2022-11-29T22:38:40.294Z,9.65
2022-11-29T22:41:09.338Z,6.85
2022-11-29T22:43:36.859Z,3.75
2022-11-29T22:46:05.552Z,6.93
2022-11-29T22:48:38.257Z,3.83
2022-11-29T22:51:07.327Z,4.25
2022-11-29T22:53:36.330Z,5.85
2022-11-29T22:56:05.687Z,7.30
2022-11-29T22:58:32.831Z,4.60
2022-11-29T23:01:03.820Z,4.15
2022-11-29T23:03:33.668Z,5.32
2022-11-29T23:06:05.567Z,5.78
2022-11-29T23:08:33.049Z,6.78
2022-11-29T23:11:04.329Z,3.88
2022-11-29T23:13:32.253Z,4.72
2022-11-29T23:15:59.260Z,9.50
2022-11-29T23:18:26.300Z,5.10
2022-11-29T23:21:00.259Z,5.10
2022-11-29T23:23:27.194Z,6.80
2022-11-29T23:25:54.136Z,10.45
2022-11-29T23:28:23.008Z,8.85
2022-11-29T23:30:50.335Z,7.50
2022-11-29T23:33:17.348Z,4.00
2022-11-29T23:35:44.307Z,6.90
2022-11-29T23:38:11.361Z,7.15
2022-11-29T23:40:38.302Z,8.70
2022-11-29T23:43:05.413Z,5.82
2022-11-29T23:45:36.182Z,5.70
2022-11-29T23:48:03.327Z,7.57
2022-11-29T23:50:30.429Z,5.32
2022-11-29T23:52:57.521Z,7.25
2022-11-29T23:55:25.437Z,4.68
2022-11-29T23:57:52.957Z,6.75
